createdAt,value
2024-05-09T00:00:46.120Z,100.00
2024-05-09T00:03:13.988Z,100.00
2024-05-09T00:05:42.167Z,100.00
2024-05-09T00:08:10.739Z,100.00
2024-05-09T00:10:40.027Z,100.00
2024-05-09T00:13:09.774Z,100.00
2024-05-09T00:15:37.663Z,100.00
2024-05-09T00:18:07.167Z,100.00
2024-05-09T00:20:39.109Z,100.00
2024-05-09T00:23:10.751Z,100.00
2024-05-09T00:25:39.004Z,100.00
2024-05-09T00:28:07.178Z,100.00
2024-05-09T00:30:36.703Z,100.00
2024-05-09T00:33:11.032Z,100.00
2024-05-09T00:35:41.741Z,100.00
2024-05-09T00:38:10.418Z,100.00
2024-05-09T00:40:43.645Z,100.00
2024-05-09T00:43:13.138Z,100.00
2024-05-09T00:45:41.915Z,100.00
2024-05-09T00:48:13.921Z,100.00
2024-05-09T00:50:45.134Z,100.00
2024-05-09T00:53:15.740Z,100.00
2024-05-09T00:55:44.307Z,100.00
2024-05-09T00:58:14.444Z,100.00
2024-05-09T01:00:42.217Z,100.00
2024-05-09T01:03:12.127Z,100.00
2024-05-09T01:05:42.582Z,100.00
2024-05-09T01:08:13.522Z,100.00
2024-05-09T01:10:44.274Z,100.00
2024-05-09T01:13:13.963Z,100.00
2024-05-09T01:15:43.558Z,100.00
2024-05-09T01:18:12.680Z,100.00
2024-05-09T01:20:43.961Z,100.00
2024-05-09T01:23:15.140Z,100.00
2024-05-09T01:25:45.671Z,100.00
2024-05-09T01:28:14.180Z,100.00
2024-05-09T01:30:41.923Z,100.00
2024-05-09T01:33:11.317Z,100.00
2024-05-09T01:35:42.762Z,100.00
2024-05-09T01:38:17.618Z,100.00
2024-05-09T01:40:46.057Z,100.00
2024-05-09T01:43:13.809Z,100.00
2024-05-09T01:45:41.543Z,100.00
2024-05-09T01:48:10.312Z,100.00
2024-05-09T01:50:43.094Z,100.00
2024-05-09T01:53:13.412Z,100.00
2024-05-09T01:55:43.239Z,100.00
2024-05-09T01:58:11.249Z,100.00
2024-05-09T02:00:42.421Z,100.00
2024-05-09T02:03:15.748Z,100.00
2024-05-09T02:05:46.916Z,100.00
2024-05-09T02:08:19.445Z,100.00
2024-05-09T02:10:48.474Z,100.00
2024-05-09T02:13:16.628Z,100.00
2024-05-09T02:15:45.411Z,100.00
2024-05-09T02:18:13.719Z,100.00
2024-05-09T02:20:43.713Z,100.00
2024-05-09T02:23:12.641Z,100.00
2024-05-09T02:25:41.414Z,100.00
2024-05-09T02:28:08.870Z,100.00
2024-05-09T02:30:40.584Z,100.00
2024-05-09T02:33:12.383Z,100.00
2024-05-09T02:35:43.091Z,100.00
2024-05-09T02:38:11.814Z,100.00
2024-05-09T02:40:40.341Z,100.00
2024-05-09T02:43:10.128Z,100.00
2024-05-09T02:45:39.821Z,100.00
2024-05-09T02:48:10.810Z,100.00
2024-05-09T02:50:40.827Z,100.00
2024-05-09T02:53:09.493Z,100.00
2024-05-09T02:55:38.522Z,100.00
2024-05-09T02:58:10.935Z,100.00
2024-05-09T03:00:41.683Z,100.00
2024-05-09T03:03:13.541Z,100.00
2024-05-09T03:05:44.821Z,100.00
2024-05-09T03:08:13.174Z,100.00
2024-05-09T03:10:40.747Z,100.00
2024-05-09T03:13:13.272Z,100.00
2024-05-09T03:15:42.618Z,100.00
2024-05-09T03:18:10.892Z,100.00
2024-05-09T03:20:39.238Z,100.00
2024-05-09T03:23:09.287Z,100.00
2024-05-09T03:25:38.748Z,100.00
2024-05-09T03:28:06.603Z,100.00
2024-05-09T03:30:40.460Z,100.00
2024-05-09T03:33:12.722Z,100.00
2024-05-09T03:35:45.799Z,100.00
2024-05-09T03:38:14.673Z,100.00
2024-05-09T03:40:47.030Z,100.00
2024-05-09T03:43:14.945Z,100.00
2024-05-09T03:45:43.539Z,100.00
2024-05-09T03:48:11.466Z,100.00
2024-05-09T03:50:39.548Z,100.00
2024-05-09T03:53:10.573Z,100.00
2024-05-09T03:55:38.229Z,100.00
2024-05-09T03:58:07.811Z,100.00
2024-05-09T04:00:39.092Z,100.00
2024-05-09T04:03:10.906Z,100.00
2024-05-09T04:05:42.007Z,100.00
2024-05-09T04:08:10.984Z,100.00
2024-05-09T04:10:39.055Z,100.00
2024-05-09T04:13:06.584Z,100.00
2024-05-09T04:15:34.112Z,100.00
2024-05-09T04:18:02.482Z,100.00
2024-05-09T04:20:38.079Z,100.00
2024-05-09T04:23:11.488Z,100.00
2024-05-09T04:25:42.325Z,100.00
2024-05-09T04:28:10.434Z,100.00
2024-05-09T04:30:40.671Z,100.00
2024-05-09T04:33:14.275Z,100.00
2024-05-09T04:35:44.047Z,100.00
2024-05-09T04:38:13.257Z,100.00
2024-05-09T04:40:41.294Z,100.00
2024-05-09T04:43:15.367Z,100.00
2024-05-09T04:45:43.870Z,100.00
2024-05-09T04:48:11.791Z,100.00
2024-05-09T04:50:40.018Z,100.00
2024-05-09T04:53:10.204Z,100.00
2024-05-09T04:55:39.911Z,100.00
2024-05-09T04:58:12.088Z,100.00
2024-05-09T05:00:41.019Z,100.00
2024-05-09T05:03:13.448Z,100.00
2024-05-09T05:05:44.886Z,100.00
2024-05-09T05:08:20.091Z,100.00
2024-05-09T05:10:48.850Z,100.00
2024-05-09T05:13:20.146Z,100.00
2024-05-09T05:15:56.431Z,100.00
2024-05-09T05:18:27.228Z,100.00
2024-05-09T05:20:56.045Z,100.00
2024-05-09T05:23:24.471Z,100.00
2024-05-09T05:25:55.051Z,100.00
2024-05-09T05:28:23.308Z,100.00
2024-05-09T05:30:51.010Z,100.00
2024-05-09T05:33:19.499Z,100.00
2024-05-09T05:35:48.452Z,100.00
2024-05-09T05:38:16.080Z,100.00
2024-05-09T05:40:43.601Z,100.00
2024-05-09T05:43:17.111Z,100.00
2024-05-09T05:45:45.187Z,100.00
2024-05-09T05:48:14.144Z,100.00
2024-05-09T05:50:42.936Z,100.00
2024-05-09T05:53:11.234Z,100.00
2024-05-09T05:55:40.247Z,100.00
2024-05-09T05:58:11.862Z,100.00
2024-05-09T06:00:41.548Z,100.00
2024-05-09T06:03:11.531Z,100.00
2024-05-09T06:05:47.056Z,100.00
2024-05-09T06:08:14.864Z,100.00
2024-05-09T06:10:43.187Z,100.00
2024-05-09T06:13:17.197Z,100.00
2024-05-09T06:15:44.706Z,100.00
2024-05-09T06:18:15.830Z,100.00
2024-05-09T06:20:44.632Z,100.00
2024-05-09T06:23:13.147Z,100.00
2024-05-09T06:25:42.217Z,100.00
2024-05-09T06:28:10.306Z,100.00
2024-05-09T06:30:40.430Z,100.00
2024-05-09T06:33:12.474Z,100.00
2024-05-09T06:35:42.537Z,100.00
2024-05-09T06:38:10.394Z,100.00
2024-05-09T06:40:41.879Z,100.00
2024-05-09T06:43:16.782Z,100.00
2024-05-09T06:45:48.435Z,100.00
2024-05-09T06:48:21.071Z,100.00
2024-05-09T06:50:49.765Z,100.00
2024-05-09T06:53:21.351Z,100.00
2024-05-09T06:55:49.099Z,100.00
2024-05-09T06:58:16.850Z,100.00
2024-05-09T07:00:44.412Z,100.00
2024-05-09T07:03:16.513Z,100.00
2024-05-09T07:05:47.818Z,100.00
2024-05-09T07:08:16.914Z,100.00
2024-05-09T07:10:44.873Z,100.00
2024-05-09T07:13:15.113Z,100.00
2024-05-09T07:15:43.324Z,100.00
2024-05-09T07:18:18.563Z,100.00
2024-05-09T07:20:48.203Z,100.00
2024-05-09T07:23:16.755Z,100.00
2024-05-09T07:25:44.391Z,100.00
2024-05-09T07:28:14.711Z,100.00
2024-05-09T07:30:42.872Z,100.00
2024-05-09T07:33:16.031Z,100.00
2024-05-09T07:35:43.724Z,100.00
2024-05-09T07:38:11.212Z,100.00
2024-05-09T07:40:42.399Z,100.00
2024-05-09T07:43:13.382Z,100.00
2024-05-09T07:45:50.472Z,100.00
2024-05-09T07:52:38.756Z,100.00
2024-05-09T07:53:47.149Z,100.00
2024-05-09T07:56:20.288Z,98.52
2024-05-09T07:58:51.367Z,98.82
2024-05-09T08:01:20.017Z,100.00
2024-05-09T08:03:49.812Z,100.00
2024-05-09T08:06:17.602Z,100.00
2024-05-09T08:08:47.153Z,100.00
2024-05-09T08:11:14.672Z,100.00
2024-05-09T08:13:42.897Z,99.69
2024-05-09T08:16:10.543Z,99.25
2024-05-09T08:18:39.450Z,99.37
2024-05-09T08:21:07.083Z,98.64
2024-05-09T08:23:34.671Z,98.95
2024-05-09T08:26:02.164Z,99.26
2024-05-09T08:28:29.639Z,99.81
2024-05-09T08:30:57.302Z,100.00
2024-05-09T08:33:24.981Z,100.00
2024-05-09T08:35:54.448Z,99.80
2024-05-09T08:38:22.301Z,97.86
2024-05-09T08:40:50.676Z,96.76
2024-05-09T08:43:20.274Z,97.17
2024-05-09T08:48:19.753Z,94.82
2024-05-09T08:50:50.285Z,94.17
2024-05-09T08:53:17.975Z,94.41
2024-05-09T08:55:51.123Z,94.79
2024-05-09T08:58:22.375Z,95.37
2024-05-09T09:00:50.068Z,95.43
2024-05-09T09:03:19.660Z,95.80
2024-05-09T09:06:07.111Z,95.74
2024-05-09T09:08:39.550Z,94.80
2024-05-09T09:11:07.264Z,95.18
2024-05-09T09:13:36.052Z,91.88
2024-05-09T09:16:04.028Z,91.44
2024-05-09T09:18:33.143Z,91.81
2024-05-09T09:21:02.445Z,91.14
2024-05-09T09:23:30.703Z,90.77
2024-05-09T09:26:00.069Z,90.79
2024-05-09T09:28:27.681Z,90.03
2024-05-09T09:31:01.806Z,90.04
2024-05-09T09:33:35.381Z,90.39
2024-05-09T09:36:03.284Z,89.99
2024-05-09T09:38:31.467Z,90.22
2024-05-09T09:41:01.516Z,90.16
2024-05-09T09:43:31.796Z,90.24
2024-05-09T09:46:00.847Z,89.45
2024-05-09T09:48:31.763Z,88.97
2024-05-09T09:50:59.696Z,88.27
2024-05-09T09:53:28.714Z,87.82
2024-05-09T09:55:56.643Z,87.54
2024-05-09T09:58:24.538Z,87.95
2024-05-09T10:00:52.193Z,87.52
2024-05-09T10:03:19.753Z,87.71
2024-05-09T10:05:49.118Z,87.29
2024-05-09T10:08:18.244Z,86.47
2024-05-09T10:10:50.538Z,85.37
2024-05-09T10:13:19.998Z,85.10
2024-05-09T10:15:54.754Z,85.43
2024-05-09T10:18:29.591Z,86.34
2024-05-09T10:20:59.719Z,87.04
2024-05-09T10:23:30.935Z,87.18
2024-05-09T10:26:02.963Z,86.60
2024-05-09T10:28:41.881Z,86.31
2024-05-09T10:31:11.308Z,86.89
2024-05-09T10:33:50.756Z,87.08
2024-05-09T10:36:21.756Z,86.99
2024-05-09T10:38:50.258Z,86.74
2024-05-09T10:41:18.273Z,86.85
2024-05-09T10:43:45.758Z,86.79
2024-05-09T10:46:17.041Z,87.47
2024-05-09T10:48:45.193Z,87.92
2024-05-09T10:51:13.630Z,87.33
2024-05-09T10:53:45.679Z,87.13
2024-05-09T10:56:14.491Z,88.10
2024-05-09T10:58:42.488Z,87.14
2024-05-09T11:01:11.147Z,86.82
2024-05-09T11:03:39.595Z,86.06
2024-05-09T11:06:07.781Z,86.25
2024-05-09T11:08:36.433Z,85.57
2024-05-09T11:11:07.766Z,85.10
2024-05-09T11:13:38.389Z,84.25
2024-05-09T11:16:26.149Z,83.39
2024-05-09T11:18:58.234Z,84.20
2024-05-09T11:21:26.856Z,83.72
2024-05-09T11:23:56.973Z,83.67
2024-05-09T11:26:25.506Z,84.52
2024-05-09T11:28:53.124Z,84.70
2024-05-09T11:31:20.706Z,84.72
2024-05-09T11:33:48.522Z,84.87
2024-05-09T11:36:16.671Z,85.34
2024-05-09T11:38:44.058Z,84.43
2024-05-09T11:41:17.619Z,84.79
2024-05-09T11:43:45.036Z,85.22
2024-05-09T11:46:12.716Z,85.73
2024-05-09T11:48:41.630Z,85.62
2024-05-09T11:51:09.164Z,85.66
2024-05-09T11:53:36.531Z,85.41
2024-05-09T11:56:04.357Z,84.58
2024-05-09T11:58:36.837Z,84.04
2024-05-09T12:01:04.609Z,83.10
2024-05-09T12:03:32.482Z,81.86
2024-05-09T12:06:00.268Z,82.34
2024-05-09T12:08:28.018Z,81.76
2024-05-09T12:10:55.762Z,82.17
2024-05-09T12:13:23.567Z,81.84
2024-05-09T12:15:51.134Z,81.30
2024-05-09T12:18:18.610Z,80.91
2024-05-09T12:20:46.174Z,79.26
2024-05-09T12:23:13.590Z,79.72
2024-05-09T12:25:40.997Z,80.63
2024-05-09T12:28:08.982Z,81.04
2024-05-09T12:30:42.149Z,80.20
2024-05-09T12:33:12.917Z,79.31
2024-05-09T12:35:44.076Z,78.47
2024-05-09T12:38:14.775Z,78.43
2024-05-09T12:40:42.691Z,79.41
2024-05-09T12:43:11.348Z,79.13
2024-05-09T12:45:42.369Z,78.94
2024-05-09T12:48:13.336Z,78.25
2024-05-09T12:50:41.839Z,78.70
2024-05-09T12:53:09.572Z,78.16
2024-05-09T12:55:44.816Z,77.92
2024-05-09T12:58:22.368Z,78.20
2024-05-09T13:00:51.852Z,77.79
2024-05-09T13:03:19.555Z,77.43
2024-05-09T13:05:47.495Z,77.70
2024-05-09T13:08:15.370Z,78.47
2024-05-09T13:10:43.010Z,78.41
2024-05-09T13:13:11.145Z,78.95
2024-05-09T13:15:38.955Z,78.79
2024-05-09T13:18:06.866Z,78.88
2024-05-09T13:20:36.414Z,78.91
2024-05-09T13:23:05.876Z,78.32
2024-05-09T13:25:37.369Z,78.09
2024-05-09T13:28:06.702Z,77.23
2024-05-09T13:30:39.771Z,77.11
2024-05-09T13:33:11.765Z,77.48
2024-05-09T13:35:46.706Z,76.75
2024-05-09T13:38:18.703Z,77.19
2024-05-09T13:40:46.874Z,77.30
2024-05-09T13:43:16.159Z,77.69
2024-05-09T13:45:43.885Z,77.41
2024-05-09T13:48:11.537Z,77.80
2024-05-09T13:50:42.147Z,78.25
2024-05-09T13:53:09.539Z,77.70
2024-05-09T13:55:40.789Z,78.24
2024-05-09T13:58:09.278Z,79.11
2024-05-09T14:00:45.255Z,79.85
2024-05-09T14:03:18.694Z,80.24
2024-05-09T14:05:47.957Z,81.58
2024-05-09T14:08:17.925Z,81.47
2024-05-09T14:10:47.172Z,81.05
2024-05-09T14:13:15.429Z,80.79
2024-05-09T14:15:43.121Z,80.21
2024-05-09T14:18:13.508Z,81.21
2024-05-09T14:20:42.688Z,80.87
2024-05-09T14:23:10.793Z,81.25
2024-05-09T14:25:42.392Z,80.55
2024-05-09T14:28:12.145Z,80.83
2024-05-09T14:30:40.391Z,80.57
2024-05-09T14:33:09.311Z,80.79
2024-05-09T14:35:38.414Z,80.53
2024-05-09T14:38:07.540Z,80.49
2024-05-09T14:40:41.542Z,80.74
2024-05-09T14:43:15.410Z,81.03
2024-05-09T14:45:44.571Z,81.41
2024-05-09T14:48:14.763Z,81.11
2024-05-09T14:50:42.589Z,81.37
2024-05-09T14:53:11.207Z,81.33
2024-05-09T14:55:40.657Z,81.09
2024-05-09T14:58:10.208Z,81.45
2024-05-09T15:00:44.482Z,81.74
2024-05-09T15:03:15.748Z,82.39
2024-05-09T15:05:43.305Z,82.63
2024-05-09T15:08:10.815Z,82.73
2024-05-09T15:10:39.159Z,83.18
2024-05-09T15:13:08.807Z,82.71
2024-05-09T15:15:38.005Z,83.75
2024-05-09T15:18:06.379Z,85.04
2024-05-09T15:20:36.840Z,85.64
2024-05-09T15:23:07.004Z,85.57
2024-05-09T15:25:36.165Z,85.33
2024-05-09T15:28:05.130Z,84.41
2024-05-09T15:30:34.165Z,84.67
2024-05-09T15:33:07.973Z,84.09
2024-05-09T15:35:36.228Z,83.75
2024-05-09T15:38:04.623Z,83.23
2024-05-09T15:40:39.016Z,83.02
2024-05-09T15:43:10.184Z,83.34
2024-05-09T15:45:40.508Z,84.17
2024-05-09T15:48:09.868Z,84.45
2024-05-09T15:50:41.158Z,84.68
2024-05-09T15:53:12.269Z,84.03
2024-05-09T15:55:40.707Z,84.53
2024-05-09T15:58:08.490Z,84.39
2024-05-09T16:00:39.892Z,84.19
2024-05-09T16:03:11.856Z,85.47
2024-05-09T16:05:41.494Z,85.86
2024-05-09T16:08:09.558Z,85.90
2024-05-09T16:10:43.425Z,86.33
2024-05-09T16:13:12.363Z,85.90
2024-05-09T16:15:40.233Z,86.28
2024-05-09T16:18:08.292Z,87.01
2024-05-09T16:20:40.196Z,87.50
2024-05-09T16:23:10.289Z,88.12
2024-05-09T16:25:39.059Z,88.83
2024-05-09T16:28:09.950Z,88.63
2024-05-09T16:30:39.417Z,88.99
2024-05-09T16:33:07.907Z,89.16
2024-05-09T16:35:35.933Z,89.01
2024-05-09T16:38:04.164Z,89.25
2024-05-09T16:40:38.301Z,88.99
2024-05-09T16:43:12.938Z,89.20
2024-05-09T16:45:44.120Z,89.59
2024-05-09T16:48:12.366Z,90.11
2024-05-09T16:50:39.790Z,90.32
2024-05-09T16:53:07.484Z,90.66
2024-05-09T16:55:36.909Z,89.66
2024-05-09T16:58:06.692Z,89.88
2024-05-09T17:00:40.819Z,89.91
2024-05-09T17:03:14.008Z,90.49
2024-05-09T17:05:43.192Z,90.53
2024-05-09T17:08:11.436Z,90.08
2024-05-09T17:10:39.053Z,90.02
2024-05-09T17:13:07.845Z,90.14
2024-05-09T17:15:37.802Z,90.35
2024-05-09T17:18:07.362Z,90.73
2024-05-09T17:20:38.016Z,91.20
2024-05-09T17:23:15.302Z,90.85
2024-05-09T17:25:43.239Z,91.84
2024-05-09T17:28:11.723Z,92.17
2024-05-09T17:30:43.016Z,92.39
2024-05-09T17:33:11.644Z,92.73
2024-05-09T17:35:40.186Z,92.88
2024-05-09T17:38:08.737Z,93.60
2024-05-09T17:40:38.067Z,94.65
2024-05-09T17:43:09.089Z,95.40
2024-05-09T17:45:41.888Z,95.77
2024-05-09T17:48:12.021Z,96.58
2024-05-09T17:50:40.752Z,96.93
2024-05-09T17:53:09.213Z,97.19
2024-05-09T17:55:37.109Z,97.87
2024-05-09T17:58:05.498Z,98.70
2024-05-09T18:00:39.104Z,99.08
2024-05-09T18:03:13.991Z,99.57
2024-05-09T18:05:43.444Z,99.55
2024-05-09T18:08:12.336Z,99.36
2024-05-09T18:10:41.374Z,100.00
2024-05-09T18:13:10.046Z,100.00
2024-05-09T18:15:42.839Z,100.00
2024-05-09T18:18:11.660Z,100.00
2024-05-09T18:20:44.036Z,100.00
2024-05-09T18:23:16.372Z,100.00
2024-05-09T18:25:45.839Z,100.00
2024-05-09T18:28:13.728Z,100.00
2024-05-09T18:30:41.542Z,100.00
2024-05-09T18:33:11.484Z,100.00
2024-05-09T18:35:42.808Z,100.00
2024-05-09T18:38:10.559Z,100.00
2024-05-09T18:40:39.018Z,100.00
2024-05-09T18:43:08.983Z,100.00
2024-05-09T18:45:38.182Z,100.00
2024-05-09T18:48:07.947Z,100.00
2024-05-09T18:50:39.527Z,100.00
2024-05-09T18:53:10.666Z,100.00
2024-05-09T18:55:39.157Z,100.00
2024-05-09T18:58:07.332Z,100.00
2024-05-09T19:00:38.418Z,100.00
2024-05-09T19:03:10.943Z,100.00
2024-05-09T19:05:42.777Z,100.00
2024-05-09T19:08:12.636Z,100.00
2024-05-09T19:10:40.657Z,100.00
2024-05-09T19:13:12.117Z,100.00
2024-05-09T19:15:42.451Z,100.00
2024-05-09T19:18:14.470Z,100.00
2024-05-09T19:20:45.662Z,100.00
2024-05-09T19:23:13.253Z,100.00
2024-05-09T19:25:40.893Z,100.00
2024-05-09T19:28:08.491Z,100.00
2024-05-09T19:30:40.408Z,100.00
2024-05-09T19:33:13.104Z,100.00
2024-05-09T19:35:42.315Z,100.00
2024-05-09T19:38:09.890Z,100.00
2024-05-09T19:40:37.383Z,100.00
2024-05-09T19:43:06.948Z,100.00
2024-05-09T19:45:35.619Z,100.00
2024-05-09T19:48:05.327Z,100.00
2024-05-09T19:50:41.285Z,100.00
2024-05-09T19:53:15.122Z,100.00
2024-05-09T19:55:43.085Z,100.00
2024-05-09T19:58:12.102Z,100.00
2024-05-09T20:00:42.433Z,100.00
2024-05-09T20:03:12.454Z,100.00
2024-05-09T20:05:42.499Z,100.00
2024-05-09T20:08:10.206Z,100.00
2024-05-09T20:10:38.160Z,100.00
2024-05-09T20:13:07.137Z,100.00
2024-05-09T20:15:37.098Z,100.00
2024-05-09T20:18:05.630Z,100.00
2024-05-09T20:20:39.068Z,100.00
2024-05-09T20:23:10.375Z,100.00
2024-05-09T20:25:37.922Z,100.00
2024-05-09T20:28:06.595Z,100.00
2024-05-09T20:30:35.773Z,100.00
2024-05-09T20:33:05.899Z,100.00
2024-05-09T20:35:34.930Z,100.00
2024-05-09T20:38:04.512Z,100.00
2024-05-09T20:40:36.946Z,100.00
2024-05-09T20:43:10.641Z,100.00
2024-05-09T20:45:40.975Z,100.00
2024-05-09T20:48:09.463Z,100.00
2024-05-09T20:50:40.734Z,100.00
2024-05-09T20:53:12.582Z,100.00
2024-05-09T20:55:41.416Z,100.00
2024-05-09T20:58:09.708Z,100.00
2024-05-09T21:00:41.128Z,100.00
2024-05-09T21:03:12.973Z,100.00
2024-05-09T21:05:41.417Z,100.00
2024-05-09T21:08:09.347Z,100.00
2024-05-09T21:10:37.611Z,100.00
2024-05-09T21:13:06.827Z,100.00
2024-05-09T21:15:36.010Z,100.00
2024-05-09T21:18:04.560Z,100.00
2024-05-09T21:20:34.615Z,100.00
2024-05-09T21:23:03.547Z,100.00
2024-05-09T21:25:31.981Z,100.00
2024-05-09T21:28:00.586Z,100.00
2024-05-09T21:30:37.954Z,100.00
2024-05-09T21:33:11.100Z,100.00
2024-05-09T21:35:40.406Z,100.00
2024-05-09T21:38:08.193Z,100.00
2024-05-09T21:40:37.318Z,100.00
2024-05-09T21:43:07.711Z,100.00
2024-05-09T21:45:36.546Z,100.00
2024-05-09T21:48:05.122Z,100.00
2024-05-09T21:50:39.407Z,100.00
2024-05-09T21:53:10.492Z,100.00
2024-05-09T21:55:38.010Z,100.00
2024-05-09T21:58:05.763Z,100.00
2024-05-09T22:00:37.860Z,100.00
2024-05-09T22:03:08.344Z,100.00
2024-05-09T22:05:37.714Z,100.00
2024-05-09T22:08:05.790Z,100.00
2024-05-09T22:10:35.631Z,100.00
2024-05-09T22:13:05.920Z,100.00
2024-05-09T22:15:39.702Z,100.00
2024-05-09T22:18:09.305Z,100.00
2024-05-09T22:20:43.911Z,100.00
2024-05-09T22:23:12.610Z,100.00
2024-05-09T22:25:40.065Z,100.00
2024-05-09T22:28:07.595Z,100.00
2024-05-09T22:30:38.472Z,100.00
2024-05-09T22:33:09.699Z,100.00
2024-05-09T22:35:38.706Z,100.00
2024-05-09T22:38:06.465Z,100.00
2024-05-09T22:40:44.783Z,100.00
2024-05-09T22:43:24.089Z,100.00
2024-05-09T22:45:54.931Z,100.00
2024-05-09T22:48:24.375Z,100.00
2024-05-09T22:50:53.022Z,100.00
2024-05-09T22:53:22.643Z,100.00
2024-05-09T22:55:50.112Z,100.00
2024-05-09T22:58:17.585Z,100.00
2024-05-09T23:00:45.150Z,100.00
2024-05-09T23:03:15.933Z,100.00
2024-05-09T23:05:43.299Z,100.00
2024-05-09T23:08:10.849Z,100.00
2024-05-09T23:10:39.946Z,100.00
2024-05-09T23:13:08.363Z,100.00
2024-05-09T23:15:37.481Z,100.00
2024-05-09T23:18:05.523Z,100.00
2024-05-09T23:20:37.981Z,100.00
2024-05-09T23:23:08.752Z,100.00
2024-05-09T23:25:37.033Z,100.00
2024-05-09T23:28:04.995Z,100.00
2024-05-09T23:30:37.820Z,100.00
2024-05-09T23:33:10.093Z,100.00
2024-05-09T23:35:40.782Z,100.00
2024-05-09T23:38:08.229Z,100.00
2024-05-09T23:40:39.586Z,100.00
2024-05-09T23:43:10.382Z,100.00
2024-05-09T23:45:38.564Z,100.00
2024-05-09T23:48:06.575Z,100.00
2024-05-09T23:50:37.522Z,100.00
2024-05-09T23:53:08.095Z,100.00
2024-05-09T23:55:36.873Z,100.00
2024-05-09T23:58:04.815Z,100.00
